Gran Canaria > ESTACION METEOROLÓGICA Fataga - San Bartolomé de Tirajana

DATOS ACTUALES Online

Ultima actulizacion 34 minutos

16.6 ºC

Temperatura

79

Humedad (%)

946.88

Presión (mb)

0

Precipitación (mm)

4.5 SW

Viento (Km/h)

DATOS DIARIOS

Temperatura últimas 24 horas (ºC)

Humedad últimas 24 horas (%)

Presión atmosférica últimas 24 horas (mb)

Precipitaciones últimas 23 horas (mm)

Viento últimas 24 horas (Km/h)

Hora Temperatura (°C) ºC Precipitación (mm) mm Presión (mb) mb Humedad (%) % Viento (Km/h) km/h
29 - 00:00 15.9 0 947 84 3.6 SW
29 - 01:00 16.1 0 947 84 12.6 S
29 - 02:00 16.2 0 947 82 9.3 SO
29 - 03:00 16.4 0 946 79 4.4 S
29 - 04:00 16.3 0 946 79 8.7 S
29 - 05:00 16 0 946 80 7.9 S
29 - 06:00 15.8 0 946 79 10.9 S
29 - 07:00 16 0 946 80 13 S
29 - 08:00 16 0 947 79 11.3 S
29 - 09:00 16.7 0 947 75 11.4 SW
29 - 10:00 18 0 947 69 11.1 SO
29 - 11:00 19.7 0 947 64 16.7 SW
29 - 12:00 21.4 0 947 59 18.5 SW
29 - 13:00 21.4 0 947 63 18.8 S
29 - 14:00 20.8 0 947 64 26.7 S
29 - 15:00 20.4 0 946 65 18.6 S
29 - 16:00 19.8 0 946 68 17.7 S
29 - 17:00 19.1 0 946 71 17.1 SW
29 - 18:00 18.5 0 946 74 24.2 S
29 - 19:00 17.1 0 946 80 20.2 S
29 - 20:00 16.6 0 946 79 19.9 S
29 - 21:00 16.4 0 946 79 17.3 S
29 - 22:00 16.4 0 947 79 11.5 S
29 - 23:00 16.6 0 947 79 4.5 SW
30 - 00:00
Apalmet utiliza cookies propias y de terceros para mejorar la usabilidad y la experiencia web. Política de cookies.